Brak ostrzeżeń pogodowych   -   Brak ostrzeżeń pogodowych

Raporty Pogodowe z Lotnisk

 

EPKK - Krakow/Balice, Poland
Odległość od stacji: Zd 81km
Aktualizacja: 20/10/2018 06:30
Mgła, Przeważnie pochmurno
Mgła, Przeważnie pochmurno
 Wiatr z PdPdZd
Wiatr: PdPdZd 4 km/h
Temperatura: 10°C
Punkt Rosy: 9°C
Wilgotność Względna: 94%
Ciśnienie Względne: 1024 hPa
Podsumowanie: Mgła
Chmury: Przeważnie pochmurno
Widoczność: 3 km
Szczegóły chmur: Małe zachmurzenie 427 m
Przeważnie pochmurno 610 m
2018/10/20 04:30 EPKK 200430Z 20002KT 3000 BR FEW014 BKN020 10/09 Q1024
EPRZ - Rzeszow/Jasionka, Poland
Odległość od stacji: Ws 81km
Aktualizacja: 20/10/2018 06:30
Pochmurnie
Pochmurnie
 Wiatr z PnZd
Wiatr: PnZd 7 km/h
Temperatura: 10°C
Temperatura Odczuwalna: 9°C
Punkt Rosy: 8°C
Wilgotność Względna: 88%
Ciśnienie Względne: 1024 hPa
Chmury: Pochmurnie
Widoczność: 6 km
Szczegóły chmur: Małe zachmurzenie 274 m
Pochmurnie 396 m
2018/10/20 04:30 EPRZ 200430Z 31004KT 6000 FEW009 OVC013 10/08 Q1024
 
EPKT - Katowice/Pyrzowice, Poland
Odległość od stacji: ZdPnZd 141km
Aktualizacja: 20/10/2018 06:30
Mgła, Przeważnie pochmurno
Mgła, Przeważnie pochmurno
 Wiatr z Zd
Wiatr: Zd 2 km/h
Temperatura: 9°C
Punkt Rosy: 8°C
Wilgotność Względna: 94%
Ciśnienie Względne: 1024 hPa
Podsumowanie: Mgła
Chmury: Przeważnie pochmurno
Widoczność: 2 km
Szczegóły chmur: Małe zachmurzenie 30 m
Częściowe zachmurzenie 61 m
Przeważnie pochmurno 732 m
2018/10/20 04:30 EPKT 200430Z 27001KT 1700 BR FEW001 SCT002 BKN024 09/08 Q1024
EPWA - Warsaw/Okecie, Poland
Odległość od stacji: Pn 240km
Aktualizacja: 20/10/2018 06:30
Przeważnie pochmurno
Przeważnie pochmurno
 Wiatr z varies
Wiatr: varies 2 km/h
Temperatura: 8°C
Punkt Rosy: 8°C
Wilgotność Względna: 100%
Ciśnienie Względne: 1024 hPa
Chmury: Przeważnie pochmurno
Widoczność: 6 km
Szczegóły chmur: Przeważnie pochmurno 122 m
2018/10/20 04:30 EPWA 200430Z VRB01KT 6000 BKN004 08/08 Q1024 TEMPO BKN006
 
EPLL - Lodz/Lublinek, Poland
Odległość od stacji: PnPnZd 218km
Aktualizacja: 20/10/2018 06:30
Mgła, Pochmurnie
Mgła, Pochmurnie
 Wiatr z varies
Wiatr: varies 4 km/h
Temperatura: 11°C
Punkt Rosy: 10°C
Wilgotność Względna: 94%
Ciśnienie Względne: 1024 hPa
Podsumowanie: Mgła
Chmury: Pochmurnie
Widoczność: 1 km
Szczegóły chmur: Pochmurnie 30 m
2018/10/20 04:30 EPLL 200430Z VRB02KT 0600 R25/1500U FG VV001 11/10 Q1024
EPWR - Wroclaw/Strachowice, Poland
Odległość od stacji: ZdPnZd 311km
Aktualizacja: 20/10/2018 06:30
Mgła, Przeważnie pochmurno
Mgła, Przeważnie pochmurno
 Wiatr z ZdPnZd
Wiatr: ZdPnZd 11 km/h
Temperatura: 11°C
Punkt Rosy: 10°C
Wilgotność Względna: 94%
Ciśnienie Względne: 1025 hPa
Podsumowanie: Mgła
Chmury: Przeważnie pochmurno
Widoczność: 5 km
Szczegóły chmur: Małe zachmurzenie 122 m
Częściowe zachmurzenie 152 m
Przeważnie pochmurno 396 m
2018/10/20 04:30 EPWR 200430Z 29006KT 5000 BR FEW004 SCT005 BKN013 11/10 Q1025
 
EPGD - Gdansk/Rebiechowo, Poland
Odległość od stacji: PnZd 553km
Aktualizacja: 20/10/2018 06:30
Przeważnie pochmurno
Przeważnie pochmurno
 Wiatr z ZdPdZa
Wiatr: ZdPdZa 9 km/h
Temperatura: 5°C
Temperatura Odczuwalna: 3°C
Punkt Rosy: 4°C
Wilgotność Względna: 93%
Ciśnienie Względne: 1023 hPa
Chmury: Przeważnie pochmurno
Widoczność: 10 km
Szczegóły chmur: Przeważnie pochmurno 1311 m
2018/10/20 04:30 EPGD 200430Z 24005KT 220V280 9999 BKN043 05/04 Q1023
EPSC - Szczecin/Goleniow, Poland
Odległość od stacji: ZdPnZd 635km
Aktualizacja: 20/10/2018 06:30
Pochmurnie
Pochmurnie
 Wiatr z varies
Wiatr: varies 2 km/h
Temperatura: 4°C
Punkt Rosy: 4°C
Wilgotność Względna: 100%
Ciśnienie Względne: 1025 hPa
Chmury: Pochmurnie
Widoczność: 10 km
Szczegóły chmur: Małe zachmurzenie 975 m
Pochmurnie 1189 m
2018/10/20 04:30 EPSC 200430Z VRB01KT 9999 FEW032 OVC039 04/04 Q1025